createdAt,value
2023-04-05T00:02:25.331Z,7.48
2023-04-05T00:17:14.528Z,8.94
2023-04-05T00:32:04.933Z,7.60
2023-04-05T00:46:56.140Z,7.39
2023-04-05T01:01:49.118Z,6.40
2023-04-05T01:16:41.530Z,9.31
2023-04-05T01:31:37.461Z,7.96
2023-04-05T01:46:32.228Z,8.38
2023-04-05T02:01:21.772Z,7.92
2023-04-05T02:16:11.839Z,7.77
2023-04-05T02:45:51.778Z,8.13
2023-04-05T03:15:58.920Z,8.46
2023-04-05T03:31:07.760Z,8.94
2023-04-05T04:01:22.561Z,9.62
2023-04-05T04:16:37.852Z,10.30
2023-04-05T04:31:53.088Z,11.52
2023-04-05T04:47:10.044Z,10.62
2023-04-05T05:02:25.860Z,10.03
2023-04-05T05:17:41.545Z,8.06
2023-04-05T05:32:53.400Z,9.03
2023-04-05T05:48:06.009Z,8.47
2023-04-05T06:03:18.836Z,8.20
2023-04-05T06:18:25.126Z,7.29
2023-04-05T06:33:18.518Z,9.93
2023-04-05T06:48:09.038Z,9.52
2023-04-05T07:02:59.545Z,9.06
2023-04-05T07:17:49.556Z,9.09
2023-04-05T07:32:41.095Z,10.09
2023-04-05T07:47:35.221Z,7.48
2023-04-05T08:02:28.841Z,11.84
2023-04-05T08:17:19.898Z,7.06
2023-04-05T08:32:11.174Z,7.44
2023-04-05T08:47:01.520Z,5.68
2023-04-05T09:01:51.976Z,6.03
2023-04-05T09:16:41.595Z,5.20
2023-04-05T09:31:34.311Z,5.92
2023-04-05T09:46:29.567Z,7.21
2023-04-05T10:01:21.767Z,5.86
2023-04-05T10:16:11.224Z,5.76
2023-04-05T10:31:13.186Z,4.47
2023-04-05T10:46:06.891Z,6.00
2023-04-05T11:00:56.588Z,6.17
2023-04-05T11:15:46.200Z,6.58
2023-04-05T11:30:46.775Z,6.10
2023-04-05T11:45:41.347Z,6.27
2023-04-05T12:30:13.851Z,5.94
2023-04-05T12:45:12.948Z,9.70
2023-04-05T13:29:49.464Z,4.48
2023-04-05T13:44:41.224Z,5.79
2023-04-05T14:29:59.825Z,3.96
2023-04-05T15:00:36.841Z,5.21
2023-04-05T15:16:02.166Z,4.68
2023-04-05T15:31:16.218Z,3.41
2023-04-05T15:46:18.316Z,3.03
2023-04-05T16:01:29.653Z,3.48
2023-04-05T16:16:53.126Z,4.80
2023-04-05T16:31:57.140Z,3.92
2023-04-05T16:47:08.695Z,4.00
2023-04-05T17:02:23.090Z,5.43
2023-04-05T17:17:37.144Z,4.24
2023-04-05T17:32:51.883Z,5.14
2023-04-05T17:48:05.550Z,6.59
2023-04-05T18:03:18.354Z,7.46
2023-04-05T18:18:25.403Z,7.40
2023-04-05T18:33:37.909Z,6.44
2023-04-05T18:48:49.771Z,7.10
2023-04-05T19:03:36.016Z,6.46
2023-04-05T19:18:26.240Z,6.60
2023-04-05T19:33:16.373Z,8.72
2023-04-05T19:48:06.323Z,7.30
2023-04-05T20:02:55.528Z,8.38
2023-04-05T20:17:46.197Z,9.53
2023-04-05T20:32:35.664Z,11.97
2023-04-05T20:47:24.921Z,7.17
2023-04-05T21:02:14.614Z,11.62
2023-04-05T21:17:03.802Z,8.72
2023-04-05T21:31:53.303Z,9.22
2023-04-05T21:46:42.756Z,12.79
2023-04-05T22:01:32.374Z,10.11
2023-04-05T22:16:22.791Z,14.69
2023-04-05T22:31:10.925Z,12.59
2023-04-05T22:46:00.653Z,16.53
2023-04-05T23:00:50.912Z,11.78
2023-04-05T23:15:40.233Z,10.58
2023-04-05T23:30:28.759Z,10.77
2023-04-05T23:45:18.659Z,8.17
